Time;durP1;ratioP1;P1;durP2;ratioP2;P2;SDS_P1;SDS_P2;PMS_P1;PMS_P2;Temp;Humidity;BMP_temperature;BMP_pressure;BME280_temperature;BME280_humidity;BME280_pressure;Samples;Min_cycle;Max_cycle;Signal;HPM_P1;HPM_P2
2024/01/30 00:01:47;;;;;;;;;37.00;30.67;;;;;;;;5124082;27;45370;-76
2024/01/30 00:04:12;;;;;;;;;31.00;29.00;;;;;;;;5105120;27;47460;-76
2024/01/30 00:06:37;;;;;;;;;32.33;29.00;;;;;;;;5105476;27;45890;-76
2024/01/30 00:09:03;;;;;;;;;35.75;33.00;;;;;;;;5123129;27;45581;-76
2024/01/30 00:11:28;;;;;;;;;31.67;30.67;;;;;;;;5106830;27;45546;-76
2024/01/30 00:13:56;;;;;;;;;30.67;30.33;;;;;;;;5119876;27;45409;-76
2024/01/30 00:16:25;;;;;;;;;31.33;26.00;;;;;;;;5105250;27;45483;-76
2024/01/30 00:18:53;;;;;;;;;33.00;30.67;;;;;;;;5120093;27;45554;-73
2024/01/30 00:21:18;;;;;;;;;30.00;28.67;;;;;;;;5105937;27;45460;-76
2024/01/30 00:23:44;;;;;;;;;27.67;26.33;;;;;;;;5086478;27;46979;-76
2024/01/30 00:26:09;;;;;;;;;31.33;31.33;;;;;;;;5103523;27;45361;-76
2024/01/30 00:28:34;;;;;;;;;30.00;30.00;;;;;;;;5098221;27;45435;-76
2024/01/30 00:31:00;;;;;;;;;37.00;27.00;;;;;;;;5106836;27;45302;-75
2024/01/30 00:33:25;;;;;;;;;33.33;28.33;;;;;;;;5104927;27;45495;-76
2024/01/30 00:35:50;;;;;;;;;28.00;27.00;;;;;;;;5106052;27;45921;-76
2024/01/30 00:38:15;;;;;;;;;31.00;29.00;;;;;;;;5121538;27;45364;-76
2024/01/30 00:40:41;;;;;;;;;34.67;27.33;;;;;;;;5121733;27;45356;-76
2024/01/30 00:43:06;;;;;;;;;33.33;28.33;;;;;;;;5103481;27;46929;-76
2024/01/30 00:45:31;;;;;;;;;30.33;28.33;;;;;;;;5122954;27;45384;-76
2024/01/30 00:47:56;;;;;;;;;30.67;28.00;;;;;;;;5122920;27;45597;-76
2024/01/30 00:50:21;;;;;;;;;30.67;29.67;;;;;;;;5124726;27;45481;-76
2024/01/30 00:52:47;;;;;;;;;29.33;28.33;;;;;;;;5113363;27;46700;-75
2024/01/30 00:55:12;;;;;;;;;30.33;27.00;;;;;;;;5104911;27;45582;-75
2024/01/30 00:57:37;;;;;;;;;28.00;28.00;;;;;;;;5123365;27;45354;-75
2024/01/30 01:00:03;;;;;;;;;30.00;27.67;;;;;;;;5104235;27;45351;-76
2024/01/30 01:02:28;;;;;;;;;38.33;31.33;;;;;;;;5123117;27;46585;-76
2024/01/30 01:04:53;;;;;;;;;32.33;30.67;;;;;;;;5121338;27;45435;-75
2024/01/30 01:07:19;;;;;;;;;30.67;26.00;;;;;;;;5119881;27;45352;-76
2024/01/30 01:09:44;;;;;;;;;29.00;26.00;;;;;;;;5122403;27;45678;-76
2024/01/30 01:12:09;;;;;;;;;27.00;26.00;;;;;;;;5124307;27;45549;-76
2024/01/30 01:14:36;;;;;;;;;32.00;28.00;;;;;;;;5118291;27;45387;-76
2024/01/30 01:17:01;;;;;;;;;28.00;26.67;;;;;;;;5097196;27;45423;-76
2024/01/30 01:19:26;;;;;;;;;32.33;31.67;;;;;;;;5104478;27;45402;-76
2024/01/30 01:21:52;;;;;;;;;33.00;28.00;;;;;;;;5104500;27;45530;-76
2024/01/30 01:24:17;;;;;;;;;30.67;26.00;;;;;;;;5120114;27;45434;-75
2024/01/30 01:26:42;;;;;;;;;34.00;28.33;;;;;;;;5117168;27;45217;-76
2024/01/30 01:29:11;;;;;;;;;32.00;24.00;;;;;;;;5105500;27;45257;-76
2024/01/30 01:31:43;;;;;;;;;31.67;28.33;;;;;;;;5114445;27;45506;-75
2024/01/30 01:34:08;;;;;;;;;36.33;28.33;;;;;;;;5120923;27;45376;-76
2024/01/30 01:36:33;;;;;;;;;35.50;32.50;;;;;;;;5124264;27;45292;-77
2024/01/30 01:38:58;;;;;;;;;31.00;27.67;;;;;;;;5107582;27;45455;-73
2024/01/30 01:41:24;;;;;;;;;26.00;25.00;;;;;;;;5107789;27;47190;-73
2024/01/30 01:43:49;;;;;;;;;28.00;25.00;;;;;;;;5106224;27;45503;-73
2024/01/30 01:46:15;;;;;;;;;32.33;30.00;;;;;;;;5126161;27;45648;-73
2024/01/30 01:48:40;;;;;;;;;26.00;26.00;;;;;;;;5124731;27;45250;-74
2024/01/30 01:51:06;;;;;;;;;29.33;28.33;;;;;;;;5107605;27;46956;-75
2024/01/30 01:53:32;;;;;;;;;32.33;27.67;;;;;;;;5120365;27;45430;-74
2024/01/30 01:55:57;;;;;;;;;35.67;30.00;;;;;;;;5113844;27;45389;-74
2024/01/30 01:58:23;;;;;;;;;34.00;28.67;;;;;;;;5125491;27;45364;-75
2024/01/30 02:00:49;;;;;;;;;35.00;30.67;;;;;;;;5124802;27;45469;-75
2024/01/30 02:03:16;;;;;;;;;36.33;31.33;;;;;;;;5105477;27;45591;-75
2024/01/30 02:05:42;;;;;;;;;36.67;28.67;;;;;;;;5125070;27;45242;-75
2024/01/30 02:08:08;;;;;;;;;26.33;23.00;;;;;;;;5124479;27;45408;-75
2024/01/30 02:10:34;;;;;;;;;32.67;32.00;;;;;;;;5119498;27;45254;-74
2024/01/30 02:12:59;;;;;;;;;36.33;31.00;;;;;;;;5124889;27;45338;-75
2024/01/30 02:15:24;;;;;;;;;33.67;30.33;;;;;;;;5124035;27;45368;-75
2024/01/30 02:17:49;;;;;;;;;29.33;27.33;;;;;;;;5106975;27;45679;-75
2024/01/30 02:20:15;;;;;;;;;32.00;31.00;;;;;;;;5125455;27;45599;-75
2024/01/30 02:22:40;;;;;;;;;29.67;26.67;;;;;;;;5106185;27;45336;-74
2024/01/30 02:25:05;;;;;;;;;29.33;28.33;;;;;;;;5125476;27;45511;-74
2024/01/30 02:27:31;;;;;;;;;26.67;26.00;;;;;;;;5118587;27;45411;-75
2024/01/30 02:29:56;;;;;;;;;31.67;27.33;;;;;;;;5104374;27;47270;-75
2024/01/30 02:32:21;;;;;;;;;27.00;26.00;;;;;;;;5118517;27;45395;-75
2024/01/30 02:34:46;;;;;;;;;29.67;26.00;;;;;;;;5104257;27;45773;-75
2024/01/30 02:37:11;;;;;;;;;23.00;22.67;;;;;;;;5101319;27;45361;-75
2024/01/30 02:39:36;;;;;;;;;28.00;26.00;;;;;;;;5123594;27;45426;-74
2024/01/30 02:42:02;;;;;;;;;30.33;25.67;;;;;;;;5125658;27;45422;-74
2024/01/30 02:44:27;;;;;;;;;26.00;24.00;;;;;;;;5105407;27;45362;-75
2024/01/30 02:46:54;;;;;;;;;22.00;22.00;;;;;;;;5107451;27;45357;-75
2024/01/30 02:49:19;;;;;;;;;25.33;23.33;;;;;;;;5124401;27;45697;-74
2024/01/30 02:51:44;;;;;;;;;23.33;23.00;;;;;;;;5104853;27;45415;-74
2024/01/30 02:54:09;;;;;;;;;24.00;20.00;;;;;;;;5095209;27;45511;-75
2024/01/30 02:56:34;;;;;;;;;28.33;21.67;;;;;;;;5105885;27;45490;-75
2024/01/30 02:58:59;;;;;;;;;23.00;21.67;;;;;;;;5123791;27;45489;-75
2024/01/30 03:01:25;;;;;;;;;23.00;21.67;;;;;;;;5123468;27;45428;-75
2024/01/30 03:03:50;;;;;;;;;22.33;20.67;;;;;;;;5106270;27;45466;-75
2024/01/30 03:06:17;;;;;;;;;23.00;22.67;;;;;;;;5120859;27;45376;-75
2024/01/30 03:08:42;;;;;;;;;23.00;21.67;;;;;;;;5122814;27;46337;-75
2024/01/30 03:11:07;;;;;;;;;26.33;24.33;;;;;;;;5098918;27;45291;-75
2024/01/30 03:13:32;;;;;;;;;19.33;17.33;;;;;;;;5124139;27;45600;-75
2024/01/30 03:15:58;;;;;;;;;24.00;20.67;;;;;;;;5123482;27;45425;-75
2024/01/30 03:18:23;;;;;;;;;22.00;21.00;;;;;;;;5121046;27;46579;-74
2024/01/30 03:20:48;;;;;;;;;21.00;21.00;;;;;;;;5125260;27;45405;-75
2024/01/30 03:23:13;;;;;;;;;22.67;21.33;;;;;;;;5103358;27;45602;-75
2024/01/30 03:25:38;;;;;;;;;21.33;17.00;;;;;;;;5106700;27;45604;-75
2024/01/30 03:28:04;;;;;;;;;19.33;18.67;;;;;;;;5099758;27;47808;-75
2024/01/30 03:30:29;;;;;;;;;22.00;20.33;;;;;;;;5122358;27;45406;-75
2024/01/30 03:32:54;;;;;;;;;21.33;20.33;;;;;;;;5105473;27;45493;-75
2024/01/30 03:35:19;;;;;;;;;20.67;17.00;;;;;;;;5125782;27;45363;-75
2024/01/30 03:37:44;;;;;;;;;24.33;21.67;;;;;;;;5123583;27;45387;-75
2024/01/30 03:40:10;;;;;;;;;21.00;19.00;;;;;;;;5121396;27;45531;-75
2024/01/30 03:42:35;;;;;;;;;26.33;21.67;;;;;;;;5105772;27;45725;-75
2024/01/30 03:45:01;;;;;;;;;24.33;20.67;;;;;;;;5105070;27;45438;-75
2024/01/30 03:47:26;;;;;;;;;16.67;15.00;;;;;;;;5125655;27;45659;-75
2024/01/30 03:49:51;;;;;;;;;20.67;18.33;;;;;;;;5124301;27;45520;-75
2024/01/30 03:52:16;;;;;;;;;23.67;21.33;;;;;;;;5125321;27;45415;-75
2024/01/30 03:54:42;;;;;;;;;19.67;16.00;;;;;;;;5114042;27;45263;-75
2024/01/30 03:57:07;;;;;;;;;24.67;18.67;;;;;;;;5116119;27;45430;-75
2024/01/30 03:59:32;;;;;;;;;19.67;18.67;;;;;;;;5119176;27;45316;-75
2024/01/30 04:01:57;;;;;;;;;19.00;16.67;;;;;;;;5105135;27;45431;-74
2024/01/30 04:04:23;;;;;;;;;24.00;18.00;;;;;;;;5122563;27;45524;-74
2024/01/30 04:06:48;;;;;;;;;20.67;17.00;;;;;;;;5104937;27;46605;-74
2024/01/30 04:09:13;;;;;;;;;17.33;15.33;;;;;;;;5100203;27;45395;-74
2024/01/30 04:11:39;;;;;;;;;17.33;14.00;;;;;;;;5117176;27;45398;-75
2024/01/30 04:14:04;;;;;;;;;20.00;19.33;;;;;;;;5121027;27;45449;-74
2024/01/30 04:16:29;;;;;;;;;18.67;14.67;;;;;;;;5124474;27;46364;-74
2024/01/30 04:18:54;;;;;;;;;14.00;14.00;;;;;;;;5101192;27;45562;-75
2024/01/30 04:21:20;;;;;;;;;21.33;17.00;;;;;;;;5124150;27;45485;-74
2024/01/30 04:23:46;;;;;;;;;15.67;14.00;;;;;;;;5105525;27;45697;-75
2024/01/30 04:26:11;;;;;;;;;16.00;16.00;;;;;;;;5121325;27;45507;-74
2024/01/30 04:28:36;;;;;;;;;14.00;14.00;;;;;;;;5117368;27;45197;-75
2024/01/30 04:31:01;;;;;;;;;17.33;15.33;;;;;;;;5123599;27;45378;-75
2024/01/30 04:33:26;;;;;;;;;16.33;16.33;;;;;;;;5120540;27;45515;-75
2024/01/30 04:35:52;;;;;;;;;16.00;14.67;;;;;;;;5124449;27;45317;-75
2024/01/30 04:38:17;;;;;;;;;16.00;15.00;;;;;;;;5121735;27;45328;-75
2024/01/30 04:40:42;;;;;;;;;21.33;19.00;;;;;;;;5119554;27;45158;-74
2024/01/30 04:43:07;;;;;;;;;21.67;18.00;;;;;;;;5123058;27;45316;-75
2024/01/30 04:45:32;;;;;;;;;17.00;15.67;;;;;;;;5123169;27;46665;-74
2024/01/30 04:47:58;;;;;;;;;15.00;14.00;;;;;;;;5122715;27;45213;-76
2024/01/30 04:50:23;;;;;;;;;15.33;15.33;;;;;;;;5105728;27;45546;-76
2024/01/30 04:52:48;;;;;;;;;17.33;16.00;;;;;;;;5113614;27;45614;-76
2024/01/30 04:55:14;;;;;;;;;17.33;14.33;;;;;;;;5116841;27;47944;-76
2024/01/30 04:57:39;;;;;;;;;17.33;16.33;;;;;;;;5123223;27;45502;-76
2024/01/30 05:00:05;;;;;;;;;18.33;16.00;;;;;;;;5104591;27;45468;-76
2024/01/30 05:02:30;;;;;;;;;19.00;17.33;;;;;;;;5123442;27;45406;-74
2024/01/30 05:04:55;;;;;;;;;14.00;14.00;;;;;;;;5087320;27;47914;-75
2024/01/30 05:07:20;;;;;;;;;17.67;17.00;;;;;;;;5120310;27;46404;-75
2024/01/30 05:09:46;;;;;;;;;19.67;15.33;;;;;;;;5099817;27;45457;-75
2024/01/30 05:12:11;;;;;;;;;21.00;17.33;;;;;;;;5106114;27;45601;-75
2024/01/30 05:14:37;;;;;;;;;21.33;17.00;;;;;;;;5118682;27;45534;-76
2024/01/30 05:17:03;;;;;;;;;21.00;20.00;;;;;;;;5124002;27;45365;-75
2024/01/30 05:19:28;;;;;;;;;14.33;14.00;;;;;;;;5122316;27;45442;-76
2024/01/30 05:21:53;;;;;;;;;22.67;20.67;;;;;;;;5123729;27;45353;-75
2024/01/30 05:24:18;;;;;;;;;21.00;17.33;;;;;;;;5103969;27;48392;-75
2024/01/30 05:26:44;;;;;;;;;22.67;18.67;;;;;;;;5098458;27;45367;-75
2024/01/30 05:29:09;;;;;;;;;22.00;20.33;;;;;;;;5103957;27;45434;-75
2024/01/30 05:31:34;;;;;;;;;22.00;19.33;;;;;;;;5099523;27;45435;-75
2024/01/30 05:33:59;;;;;;;;;23.33;21.67;;;;;;;;5119436;27;45418;-74
2024/01/30 05:36:25;;;;;;;;;17.33;17.33;;;;;;;;5119692;27;45376;-74
2024/01/30 05:38:50;;;;;;;;;21.33;18.67;;;;;;;;5101269;27;45454;-75
2024/01/30 05:41:15;;;;;;;;;22.67;21.00;;;;;;;;5104250;27;45643;-74
2024/01/30 05:43:44;;;;;;;;;16.67;16.00;;;;;;;;5121734;27;45459;-74
2024/01/30 05:46:09;;;;;;;;;16.00;13.67;;;;;;;;5103528;27;45382;-75
2024/01/30 05:48:35;;;;;;;;;17.00;17.00;;;;;;;;5102566;27;45328;-75
2024/01/30 05:51:00;;;;;;;;;15.00;13.67;;;;;;;;5105460;27;45553;-75
2024/01/30 05:53:25;;;;;;;;;21.00;17.33;;;;;;;;5111130;27;45919;-74
2024/01/30 05:55:51;;;;;;;;;14.00;13.33;;;;;;;;5096963;27;45364;-75
2024/01/30 05:58:16;;;;;;;;;19.33;17.67;;;;;;;;5121301;27;45529;-76
2024/01/30 06:00:41;;;;;;;;;19.33;16.67;;;;;;;;5104142;27;45638;-75
2024/01/30 06:03:07;;;;;;;;;18.00;15.33;;;;;;;;5118651;27;45771;-75
2024/01/30 06:05:32;;;;;;;;;17.00;14.00;;;;;;;;5119763;27;45486;-75
2024/01/30 06:07:57;;;;;;;;;14.00;14.00;;;;;;;;5116912;27;45587;-74
2024/01/30 06:10:22;;;;;;;;;15.00;15.00;;;;;;;;5114604;27;45349;-75
2024/01/30 06:12:48;;;;;;;;;19.00;14.33;;;;;;;;5121134;27;45570;-75
2024/01/30 06:15:13;;;;;;;;;13.33;13.33;;;;;;;;5103339;27;45285;-75
2024/01/30 06:17:39;;;;;;;;;15.33;13.67;;;;;;;;5103030;27;45541;-75
2024/01/30 06:20:04;;;;;;;;;11.00;10.67;;;;;;;;5121178;27;45447;-75
2024/01/30 06:22:30;;;;;;;;;15.00;13.00;;;;;;;;5122095;27;46311;-75
2024/01/30 06:24:55;;;;;;;;;13.00;13.00;;;;;;;;5124347;27;45563;-75
2024/01/30 06:27:20;;;;;;;;;13.00;12.33;;;;;;;;5118456;27;45455;-75
2024/01/30 06:29:45;;;;;;;;;11.00;11.00;;;;;;;;5100541;27;45334;-76
2024/01/30 06:32:10;;;;;;;;;14.67;13.33;;;;;;;;5124152;27;45511;-75
2024/01/30 06:34:36;;;;;;;;;16.67;14.67;;;;;;;;5123279;27;45348;-76
2024/01/30 06:37:01;;;;;;;;;19.33;16.33;;;;;;;;5122269;27;45190;-76
2024/01/30 06:39:26;;;;;;;;;15.00;15.00;;;;;;;;5105899;27;45336;-75
2024/01/30 06:41:52;;;;;;;;;18.33;17.00;;;;;;;;5105366;27;47339;-75
2024/01/30 06:44:17;;;;;;;;;13.33;13.33;;;;;;;;5101540;27;45278;-75
2024/01/30 06:46:43;;;;;;;;;15.00;14.00;;;;;;;;5124552;27;45291;-76
2024/01/30 06:49:08;;;;;;;;;13.33;12.67;;;;;;;;5119964;27;45255;-76
2024/01/30 06:51:33;;;;;;;;;14.67;14.67;;;;;;;;5124177;27;45667;-76
2024/01/30 06:53:58;;;;;;;;;19.67;15.33;;;;;;;;5103396;27;45482;-76
2024/01/30 06:56:24;;;;;;;;;16.33;13.00;;;;;;;;5116521;27;45177;-76
2024/01/30 06:58:49;;;;;;;;;17.67;15.00;;;;;;;;5124034;27;45416;-76
2024/01/30 07:01:15;;;;;;;;;15.67;15.33;;;;;;;;5104931;27;46994;-78
2024/01/30 07:03:40;;;;;;;;;16.67;15.00;;;;;;;;5122340;27;45443;-75
2024/01/30 07:06:05;;;;;;;;;18.67;17.33;;;;;;;;5123651;27;45401;-76
2024/01/30 07:08:30;;;;;;;;;18.00;15.00;;;;;;;;5123675;27;45376;-75
2024/01/30 07:10:56;;;;;;;;;15.00;14.00;;;;;;;;5114077;27;45384;-76
2024/01/30 07:13:21;;;;;;;;;18.00;15.00;;;;;;;;5122478;27;45337;-76
2024/01/30 07:15:46;;;;;;;;;16.67;13.00;;;;;;;;5123169;27;45407;-75
2024/01/30 07:18:13;;;;;;;;;16.33;14.00;;;;;;;;5123895;27;45696;-74
2024/01/30 07:20:42;;;;;;;;;20.00;15.00;;;;;;;;5123857;27;45639;-76
2024/01/30 07:23:07;;;;;;;;;17.67;16.33;;;;;;;;5121113;27;45654;-74
2024/01/30 07:25:32;;;;;;;;;17.33;17.00;;;;;;;;5123911;27;45387;-73
2024/01/30 07:27:58;;;;;;;;;17.33;16.33;;;;;;;;5114892;27;45661;-74
2024/01/30 07:30:23;;;;;;;;;14.33;13.33;;;;;;;;5105210;27;48028;-73
2024/01/30 07:32:48;;;;;;;;;17.00;15.00;;;;;;;;5094413;27;45237;-75
2024/01/30 07:35:14;;;;;;;;;15.33;14.33;;;;;;;;5102733;27;45282;-74
2024/01/30 07:37:39;;;;;;;;;19.00;15.33;;;;;;;;5116782;27;45493;-75
2024/01/30 07:40:06;;;;;;;;;23.67;16.33;;;;;;;;5117524;27;46377;-73
2024/01/30 07:42:31;;;;;;;;;24.33;21.00;;;;;;;;5124404;27;45466;-75
2024/01/30 07:44:56;;;;;;;;;18.00;18.00;;;;;;;;5105193;27;45381;-72
2024/01/30 07:47:22;;;;;;;;;21.67;14.33;;;;;;;;5124889;27;45577;-73
2024/01/30 07:49:47;;;;;;;;;18.33;18.00;;;;;;;;5119767;27;46197;-75
2024/01/30 07:52:13;;;;;;;;;22.00;17.33;;;;;;;;5117831;27;45328;-74
2024/01/30 07:54:38;;;;;;;;;18.00;17.33;;;;;;;;5118259;27;45364;-75
2024/01/30 07:57:04;;;;;;;;;18.33;17.00;;;;;;;;5124251;27;45424;-74
2024/01/30 07:59:29;;;;;;;;;16.33;16.00;;;;;;;;5115588;27;45533;-73
2024/01/30 08:01:54;;;;;;;;;28.67;23.00;;;;;;;;5105620;27;45732;-74
2024/01/30 08:04:19;;;;;;;;;23.00;17.33;;;;;;;;5091836;27;45397;-73
2024/01/30 08:06:45;;;;;;;;;15.33;15.00;;;;;;;;5105632;27;45493;-74
2024/01/30 08:09:10;;;;;;;;;20.33;18.00;;;;;;;;5119001;27;46730;-73
2024/01/30 08:11:35;;;;;;;;;21.67;18.00;;;;;;;;5115771;27;45385;-73
2024/01/30 08:14:01;;;;;;;;;21.00;18.00;;;;;;;;5120950;27;45291;-72
2024/01/30 08:16:26;;;;;;;;;18.00;18.00;;;;;;;;5099331;27;45570;-73
2024/01/30 08:18:53;;;;;;;;;22.33;16.67;;;;;;;;5117798;27;45360;-74
2024/01/30 08:21:18;;;;;;;;;16.67;16.67;;;;;;;;5118357;27;45413;-74
2024/01/30 08:23:43;;;;;;;;;19.00;15.67;;;;;;;;5117923;27;45409;-74
2024/01/30 08:26:08;;;;;;;;;19.67;17.00;;;;;;;;5122726;27;45459;-73
2024/01/30 08:28:34;;;;;;;;;19.67;15.67;;;;;;;;5117845;27;46185;-74
2024/01/30 08:30:59;;;;;;;;;16.00;14.00;;;;;;;;5124308;27;45351;-75
2024/01/30 08:33:24;;;;;;;;;24.50;19.50;;;;;;;;5120416;27;45606;-74
2024/01/30 08:35:49;;;;;;;;;20.33;18.67;;;;;;;;5122025;27;45458;-74
2024/01/30 08:38:14;;;;;;;;;17.33;16.00;;;;;;;;5120616;27;45546;-75
2024/01/30 08:40:39;;;;;;;;;22.33;20.67;;;;;;;;5122333;27;45388;-74
2024/01/30 08:43:05;;;;;;;;;24.00;21.33;;;;;;;;5121089;27;45245;-73
2024/01/30 08:45:30;;;;;;;;;28.00;23.33;;;;;;;;5123741;27;45273;-74
2024/01/30 08:47:58;;;;;;;;;19.67;18.67;;;;;;;;5103571;27;46219;-74
2024/01/30 08:50:23;;;;;;;;;29.00;22.00;;;;;;;;5098257;27;45990;-74
2024/01/30 08:52:48;;;;;;;;;23.33;18.33;;;;;;;;5099585;27;45394;-74
2024/01/30 08:55:13;;;;;;;;;21.67;20.00;;;;;;;;5095701;27;45468;-73
2024/01/30 08:57:39;;;;;;;;;19.00;19.00;;;;;;;;5119238;27;45372;-75
2024/01/30 09:00:06;;;;;;;;;22.67;21.00;;;;;;;;5120291;27;45289;-74
2024/01/30 09:02:31;;;;;;;;;19.33;18.33;;;;;;;;5105004;27;45269;-74
2024/01/30 09:04:57;;;;;;;;;17.33;17.00;;;;;;;;5122854;27;45242;-74
2024/01/30 09:07:22;;;;;;;;;21.33;19.33;;;;;;;;5104573;27;46823;-74
2024/01/30 09:09:47;;;;;;;;;26.67;21.00;;;;;;;;5100075;27;45193;-74
2024/01/30 09:12:12;;;;;;;;;19.67;17.33;;;;;;;;5095196;27;46924;-74
2024/01/30 09:14:39;;;;;;;;;19.00;18.00;;;;;;;;5119923;27;45324;-73
2024/01/30 09:17:04;;;;;;;;;20.00;16.33;;;;;;;;5102722;27;47217;-74
2024/01/30 09:19:30;;;;;;;;;19.67;18.67;;;;;;;;5119622;27;45151;-73
2024/01/30 09:21:55;;;;;;;;;20.00;18.00;;;;;;;;5104681;27;45362;-75
2024/01/30 09:24:20;;;;;;;;;23.67;19.67;;;;;;;;5103679;27;45458;-74
2024/01/30 09:26:46;;;;;;;;;24.00;24.00;;;;;;;;5117350;27;45460;-74
2024/01/30 09:29:11;;;;;;;;;23.00;20.00;;;;;;;;5102859;27;45478;-75
2024/01/30 09:31:36;;;;;;;;;20.00;18.67;;;;;;;;5098482;27;45333;-73
2024/01/30 09:34:01;;;;;;;;;17.00;16.67;;;;;;;;5119741;27;45943;-76
2024/01/30 09:36:27;;;;;;;;;22.33;20.67;;;;;;;;5098973;27;47869;-75
2024/01/30 09:38:52;;;;;;;;;26.33;20.00;;;;;;;;5121171;27;45972;-74
2024/01/30 09:41:18;;;;;;;;;25.33;22.00;;;;;;;;5123934;27;45394;-75
2024/01/30 09:43:48;;;;;;;;;24.33;20.67;;;;;;;;5103583;27;45424;-74
2024/01/30 09:46:14;;;;;;;;;21.00;18.00;;;;;;;;5123518;27;45567;-75
2024/01/30 09:48:42;;;;;;;;;21.33;18.67;;;;;;;;5099029;27;45332;-75
2024/01/30 09:51:07;;;;;;;;;18.67;18.67;;;;;;;;5115279;27;45431;-75
2024/01/30 09:53:33;;;;;;;;;21.67;20.00;;;;;;;;5122026;27;45395;-73
2024/01/30 09:55:58;;;;;;;;;16.67;15.33;;;;;;;;5106425;27;46689;-74
2024/01/30 09:58:23;;;;;;;;;22.00;19.33;;;;;;;;5122999;27;45385;-74
2024/01/30 10:00:48;;;;;;;;;19.00;17.33;;;;;;;;5125947;27;45663;-74
2024/01/30 10:03:16;;;;;;;;;15.67;15.33;;;;;;;;5121629;27;45491;-74
2024/01/30 10:05:41;;;;;;;;;21.67;18.00;;;;;;;;5103949;27;47573;-72
2024/01/30 10:08:10;;;;;;;;;17.33;16.67;;;;;;;;5101437;27;45400;-75
2024/01/30 10:10:35;;;;;;;;;14.33;13.67;;;;;;;;5122898;27;45468;-73
2024/01/30 10:13:01;;;;;;;;;13.67;13.67;;;;;;;;5117935;27;45689;-73
2024/01/30 10:15:27;;;;;;;;;11.33;8.67;;;;;;;;5118042;27;45504;-74
2024/01/30 10:17:53;;;;;;;;;17.00;17.00;;;;;;;;5122675;27;45222;-74
2024/01/30 10:20:19;;;;;;;;;12.33;12.33;;;;;;;;5119537;27;45385;-73
2024/01/30 10:22:45;;;;;;;;;15.33;13.33;;;;;;;;5125079;27;45514;-71
2024/01/30 10:25:11;;;;;;;;;18.00;13.67;;;;;;;;5123656;27;45379;-72
2024/01/30 10:27:36;;;;;;;;;16.00;13.00;;;;;;;;5124879;27;45328;-73
2024/01/30 10:30:03;;;;;;;;;13.00;11.33;;;;;;;;5102982;27;45800;-72
2024/01/30 10:32:29;;;;;;;;;14.33;12.00;;;;;;;;5116596;27;45344;-72
2024/01/30 10:34:54;;;;;;;;;7.00;7.00;;;;;;;;5121917;27;45588;-73
2024/01/30 10:37:22;;;;;;;;;14.00;12.00;;;;;;;;5125471;27;45355;-72
2024/01/30 10:39:47;;;;;;;;;13.67;11.67;;;;;;;;5120484;27;45495;-73
2024/01/30 10:42:13;;;;;;;;;12.33;10.67;;;;;;;;5125075;27;45466;-73
2024/01/30 10:45:03;;;;;;;;;16.00;14.67;;;;;;;;5105970;27;48077;-73
2024/01/30 10:47:28;;;;;;;;;12.67;12.00;;;;;;;;5093934;27;45329;-71
2024/01/30 10:49:54;;;;;;;;;11.00;11.00;;;;;;;;5122734;27;45261;-73
2024/01/30 10:52:20;;;;;;;;;15.00;11.33;;;;;;;;5125306;27;45535;-72
2024/01/30 10:54:46;;;;;;;;;16.00;13.33;;;;;;;;5123933;27;45498;-73
2024/01/30 10:57:12;;;;;;;;;8.33;8.33;;;;;;;;5125132;27;45518;-74
2024/01/30 10:59:38;;;;;;;;;15.00;12.67;;;;;;;;5105874;27;45478;-72
2024/01/30 11:02:03;;;;;;;;;11.67;10.67;;;;;;;;5124824;27;45373;-73
2024/01/30 11:04:35;;;;;;;;;9.33;7.00;;;;;;;;5122066;27;46688;-73
2024/01/30 11:07:02;;;;;;;;;13.67;10.67;;;;;;;;5123578;27;45632;-74
2024/01/30 11:09:29;;;;;;;;;13.33;10.33;;;;;;;;5106064;27;45396;-73
2024/01/30 11:12:01;;;;;;;;;13.67;13.00;;;;;;;;5129602;27;45357;-74
2024/01/30 11:14:27;;;;;;;;;12.33;12.33;;;;;;;;5124203;27;45565;-73
2024/01/30 11:16:52;;;;;;;;;12.67;9.00;;;;;;;;5105920;27;47544;-71
2024/01/30 11:19:27;;;;;;;;;15.00;13.00;;;;;;;;5088277;27;46406;-73
2024/01/30 11:21:54;;;;;;;;;17.00;16.00;;;;;;;;5116907;27;45529;-73
2024/01/30 11:24:19;;;;;;;;;12.33;9.00;;;;;;;;5102823;27;46694;-71
2024/01/30 11:26:45;;;;;;;;;9.33;9.33;;;;;;;;5100735;27;46329;-73
2024/01/30 11:29:13;;;;;;;;;16.33;13.67;;;;;;;;5104107;27;45511;-73
2024/01/30 11:31:38;;;;;;;;;23.33;13.67;;;;;;;;5105083;27;45288;-73
2024/01/30 11:34:03;;;;;;;;;14.00;10.00;;;;;;;;5105183;27;45222;-73
2024/01/30 11:36:32;;;;;;;;;15.33;12.00;;;;;;;;5104655;27;45289;-73
2024/01/30 11:38:57;;;;;;;;;12.33;10.33;;;;;;;;5105176;27;45662;-72
2024/01/30 11:41:23;;;;;;;;;14.33;13.33;;;;;;;;5105559;27;45418;-73
2024/01/30 11:43:54;;;;;;;;;13.33;11.00;;;;;;;;5104918;27;45562;-72
2024/01/30 11:46:20;;;;;;;;;8.33;7.00;;;;;;;;5104694;27;45314;-73
2024/01/30 11:48:45;;;;;;;;;13.00;12.33;;;;;;;;5104348;27;45395;-73
2024/01/30 11:51:11;;;;;;;;;12.67;10.67;;;;;;;;5104887;27;45478;-73
2024/01/30 11:53:37;;;;;;;;;11.33;10.33;;;;;;;;5104684;27;45554;-73
2024/01/30 11:56:03;;;;;;;;;17.67;14.67;;;;;;;;5104677;27;45526;-72
2024/01/30 11:58:28;;;;;;;;;17.00;14.00;;;;;;;;5104441;27;45428;-73
2024/01/30 12:00:57;;;;;;;;;14.00;11.67;;;;;;;;5105155;27;45363;-73
2024/01/30 12:03:22;;;;;;;;;9.67;9.33;;;;;;;;5103437;27;45659;-73
2024/01/30 12:05:54;;;;;;;;;12.67;10.33;;;;;;;;5104310;27;45392;-72
2024/01/30 12:08:19;;;;;;;;;8.33;8.33;;;;;;;;5103392;27;45452;-72
2024/01/30 12:10:45;;;;;;;;;16.33;11.33;;;;;;;;5106228;27;45579;-72
2024/01/30 12:13:10;;;;;;;;;11.00;9.67;;;;;;;;5108412;27;46436;-72
2024/01/30 12:15:35;;;;;;;;;14.00;12.67;;;;;;;;5102773;27;45239;-73
2024/01/30 12:18:05;;;;;;;;;16.00;13.67;;;;;;;;5104586;27;45263;-74
2024/01/30 12:20:31;;;;;;;;;14.33;10.67;;;;;;;;5103631;27;45749;-72
2024/01/30 12:22:56;;;;;;;;;10.33;7.67;;;;;;;;5103826;27;45127;-73
2024/01/30 12:25:23;;;;;;;;;13.00;10.33;;;;;;;;5096463;27;45536;-72
2024/01/30 12:27:52;;;;;;;;;9.00;7.00;;;;;;;;5104243;27;45305;-73
2024/01/30 12:30:18;;;;;;;;;5.33;4.00;;;;;;;;5104580;27;45402;-72
2024/01/30 12:32:44;;;;;;;;;5.00;5.00;;;;;;;;5103935;27;45590;-72
2024/01/30 12:35:09;;;;;;;;;8.00;7.00;;;;;;;;5102624;27;45320;-72
2024/01/30 12:37:35;;;;;;;;;6.67;5.00;;;;;;;;5103754;27;45545;-73
2024/01/30 12:40:00;;;;;;;;;8.33;8.00;;;;;;;;5104312;27;45436;-74
2024/01/30 12:42:26;;;;;;;;;7.00;7.00;;;;;;;;5103903;27;46828;-73
2024/01/30 12:44:51;;;;;;;;;8.33;5.67;;;;;;;;5102966;27;45410;-73
2024/01/30 12:47:17;;;;;;;;;8.00;8.00;;;;;;;;5103975;27;45307;-72
2024/01/30 12:49:44;;;;;;;;;7.67;6.33;;;;;;;;5104543;27;45529;-73
2024/01/30 12:52:10;;;;;;;;;2.33;2.33;;;;;;;;5096651;27;47889;-73
2024/01/30 12:54:35;;;;;;;;;7.00;5.00;;;;;;;;5098738;27;45352;-72
2024/01/30 12:57:01;;;;;;;;;8.33;6.00;;;;;;;;5104138;27;45342;-73
2024/01/30 12:59:26;;;;;;;;;6.67;6.67;;;;;;;;5104417;27;45423;-72
2024/01/30 13:01:51;;;;;;;;;8.67;5.00;;;;;;;;5103686;27;46695;-72
2024/01/30 13:04:16;;;;;;;;;6.00;5.00;;;;;;;;5103593;27;45338;-72
2024/01/30 13:06:42;;;;;;;;;3.00;3.00;;;;;;;;5102283;27;45314;-71
2024/01/30 13:09:07;;;;;;;;;7.00;4.33;;;;;;;;5103802;27;45255;-72
2024/01/30 13:11:32;;;;;;;;;7.33;6.00;;;;;;;;5103723;27;47272;-72
2024/01/30 13:13:57;;;;;;;;;7.33;5.00;;;;;;;;5103368;27;45322;-72
2024/01/30 13:16:23;;;;;;;;;7.00;6.00;;;;;;;;5119384;27;45488;-72
2024/01/30 13:18:48;;;;;;;;;4.00;4.00;;;;;;;;5125028;27;45351;-72
2024/01/30 13:21:13;;;;;;;;;2.00;2.00;;;;;;;;5124045;27;46570;-72
2024/01/30 13:23:38;;;;;;;;;5.67;5.67;;;;;;;;5105286;27;45391;-73
2024/01/30 13:26:04;;;;;;;;;5.00;3.00;;;;;;;;5116754;27;45362;-72
2024/01/30 13:28:29;;;;;;;;;5.00;5.00;;;;;;;;5124779;27;45149;-74
2024/01/30 13:30:54;;;;;;;;;4.00;3.33;;;;;;;;5124196;27;45577;-73
2024/01/30 13:33:19;;;;;;;;;6.00;6.00;;;;;;;;5127997;27;45208;-73
2024/01/30 13:35:44;;;;;;;;;4.67;4.67;;;;;;;;5127754;27;45354;-73
2024/01/30 13:38:10;;;;;;;;;4.33;4.33;;;;;;;;5128454;27;45585;-73
2024/01/30 13:40:35;;;;;;;;;3.00;3.00;;;;;;;;5127570;27;45812;-73
2024/01/30 13:43:00;;;;;;;;;5.33;4.33;;;;;;;;5127594;27;45322;-73
2024/01/30 13:45:25;;;;;;;;;2.67;2.00;;;;;;;;5127549;27;45594;-73
2024/01/30 13:47:51;;;;;;;;;3.67;3.67;;;;;;;;5124205;27;45502;-72
2024/01/30 13:50:16;;;;;;;;;16.00;6.67;;;;;;;;5126696;27;45605;-72
2024/01/30 13:52:42;;;;;;;;;3.67;2.00;;;;;;;;5121598;27;45495;-73
2024/01/30 13:55:07;;;;;;;;;6.33;4.00;;;;;;;;5124997;27;45331;-73
2024/01/30 13:57:35;;;;;;;;;5.67;4.67;;;;;;;;5123061;27;45305;-73
2024/01/30 14:00:00;;;;;;;;;6.67;3.00;;;;;;;;5125871;27;45348;-73
2024/01/30 14:02:26;;;;;;;;;2.00;2.00;;;;;;;;5123429;27;45285;-73
2024/01/30 14:04:51;;;;;;;;;5.00;3.00;;;;;;;;5125010;27;45573;-73
2024/01/30 14:07:18;;;;;;;;;5.33;3.00;;;;;;;;5124956;27;45516;-72
2024/01/30 14:09:43;;;;;;;;;2.00;2.00;;;;;;;;5125532;27;46867;-72
2024/01/30 14:12:08;;;;;;;;;4.00;2.33;;;;;;;;5106967;27;45241;-72